createdAt,value
2023-04-07T00:01:36.304Z,31.02
2023-04-07T00:04:03.633Z,33.92
2023-04-07T00:06:31.004Z,30.83
2023-04-07T00:08:58.021Z,36.60
2023-04-07T00:11:25.108Z,25.75
2023-04-07T00:13:52.329Z,24.50
2023-04-07T00:16:19.471Z,33.38
2023-04-07T00:18:47.554Z,30.85
2023-04-07T00:21:14.394Z,31.38
2023-04-07T00:23:41.293Z,34.60
2023-04-07T00:26:08.597Z,29.77
2023-04-07T00:28:35.501Z,36.30
2023-04-07T00:31:02.422Z,33.28
2023-04-07T00:33:29.487Z,27.55
2023-04-07T00:35:58.130Z,25.13
2023-04-07T00:38:25.313Z,29.33
2023-04-07T00:41:11.324Z,28.00
2023-04-07T00:43:38.254Z,40.10
2023-04-07T00:46:05.315Z,43.55
2023-04-07T00:48:32.372Z,41.17
2023-04-07T00:50:59.558Z,41.53
2023-04-07T00:53:26.793Z,47.97
2023-04-07T00:55:54.224Z,40.15
2023-04-07T00:58:21.645Z,44.38
2023-04-07T01:03:34.392Z,44.45
2023-04-07T01:06:05.873Z,40.67
2023-04-07T01:08:48.506Z,50.05
2023-04-07T01:11:49.828Z,42.30
2023-04-07T01:14:19.770Z,45.10
2023-04-07T01:16:49.125Z,42.40
2023-04-07T01:19:52.694Z,40.30
2023-04-07T01:22:35.513Z,41.63
2023-04-07T01:25:30.801Z,39.47
2023-04-07T01:28:18.801Z,43.35
2023-04-07T01:30:47.341Z,47.45
2023-04-07T01:33:15.977Z,43.85
2023-04-07T01:35:44.189Z,40.08
2023-04-07T01:38:12.974Z,42.25
2023-04-07T01:40:41.487Z,44.17
2023-04-07T01:43:09.203Z,52.40
2023-04-07T01:45:37.617Z,45.10
2023-04-07T01:48:08.800Z,40.78
2023-04-07T01:50:37.478Z,43.60
2023-04-07T01:53:05.560Z,39.65
2023-04-07T01:55:32.821Z,43.35
2023-04-07T01:58:05.290Z,38.60
2023-04-07T02:00:32.833Z,41.17
2023-04-07T02:03:21.694Z,43.85
2023-04-07T02:05:57.848Z,41.10
2023-04-07T02:08:29.564Z,29.55
2023-04-07T02:10:59.824Z,34.83
2023-04-07T02:13:29.280Z,32.08
2023-04-07T02:15:58.314Z,27.17
2023-04-07T02:18:28.354Z,26.25
2023-04-07T02:20:56.640Z,25.15
2023-04-07T02:23:23.531Z,33.38
2023-04-07T02:25:50.536Z,35.30
2023-04-07T02:28:17.464Z,28.60
2023-04-07T02:30:44.287Z,30.02
2023-04-07T02:33:11.310Z,24.58
2023-04-07T02:35:38.319Z,31.33
2023-04-07T02:38:05.243Z,34.80
2023-04-07T02:40:32.211Z,30.20
2023-04-07T02:42:59.550Z,28.77
2023-04-07T02:45:26.658Z,32.78
2023-04-07T02:47:53.499Z,29.92
2023-04-07T02:50:20.647Z,35.10
2023-04-07T02:52:47.481Z,34.85
2023-04-07T02:55:14.474Z,35.05
2023-04-07T02:57:41.792Z,27.33
2023-04-07T03:00:09.461Z,39.50
2023-04-07T03:02:36.488Z,26.73
2023-04-07T03:05:04.830Z,35.65
2023-04-07T03:07:32.183Z,32.42
2023-04-07T03:09:59.021Z,32.03
2023-04-07T03:12:25.925Z,32.63
2023-04-07T03:14:52.945Z,38.28
2023-04-07T03:17:20.267Z,39.10
2023-04-07T03:19:47.427Z,36.88
2023-04-07T03:22:14.321Z,50.67
2023-04-07T03:24:41.387Z,56.63
2023-04-07T03:27:08.361Z,64.72
2023-04-07T03:29:35.404Z,61.40
2023-04-07T03:32:02.418Z,55.05
2023-04-07T03:34:29.622Z,67.88
2023-04-07T03:36:56.405Z,61.22
2023-04-07T03:39:23.600Z,60.83
2023-04-07T03:41:50.519Z,59.78
2023-04-07T03:44:17.605Z,62.72
2023-04-07T03:46:45.841Z,64.32
2023-04-07T03:49:12.853Z,56.97
2023-04-07T03:51:40.008Z,59.90
2023-04-07T03:54:07.081Z,55.75
2023-04-07T03:56:34.128Z,62.58
2023-04-07T03:59:01.054Z,65.03
2023-04-07T04:01:28.206Z,58.97
2023-04-07T04:03:55.484Z,57.40
2023-04-07T04:06:22.921Z,63.17
2023-04-07T04:08:49.758Z,68.82
2023-04-07T04:11:16.914Z,61.67
2023-04-07T04:13:43.755Z,58.75
2023-04-07T04:16:11.855Z,61.30
2023-04-07T04:18:41.130Z,48.78
2023-04-07T04:21:09.264Z,44.83
2023-04-07T04:23:36.294Z,53.15
2023-04-07T04:26:04.106Z,45.90
2023-04-07T04:28:31.466Z,51.67
2023-04-07T04:30:58.424Z,49.65
2023-04-07T04:33:25.997Z,48.00
2023-04-07T04:35:52.931Z,43.38
2023-04-07T04:38:20.017Z,47.08
2023-04-07T04:40:47.022Z,50.88
2023-04-07T04:43:14.151Z,44.75
2023-04-07T04:45:41.201Z,45.97
2023-04-07T04:48:08.304Z,41.45
2023-04-07T04:50:43.116Z,44.95
2023-04-07T04:53:10.551Z,46.90
2023-04-07T04:55:37.797Z,47.38
2023-04-07T04:58:04.669Z,39.92
2023-04-07T05:00:31.730Z,49.45
2023-04-07T05:02:58.838Z,49.53
2023-04-07T05:05:26.255Z,44.47
2023-04-07T05:07:53.276Z,40.47
2023-04-07T05:10:20.240Z,40.28
2023-04-07T05:12:47.261Z,47.60
2023-04-07T05:15:15.748Z,52.67
2023-04-07T05:17:42.686Z,48.00
2023-04-07T05:20:11.023Z,48.20
2023-04-07T05:22:37.994Z,49.65
2023-04-07T05:25:05.874Z,49.85
2023-04-07T05:27:32.789Z,58.40
2023-04-07T05:29:59.625Z,53.72
2023-04-07T05:32:28.376Z,49.75
2023-04-07T05:34:55.625Z,54.80
2023-04-07T05:37:22.581Z,60.78
2023-04-07T05:39:49.832Z,60.05
2023-04-07T05:42:18.027Z,69.43
2023-04-07T05:44:45.024Z,80.30
2023-04-07T05:47:12.291Z,67.43
2023-04-07T05:49:46.152Z,77.20
2023-04-07T05:52:13.728Z,76.97
2023-04-07T05:54:40.982Z,75.30
2023-04-07T05:57:08.367Z,75.80
2023-04-07T05:59:35.835Z,67.13
2023-04-07T06:02:04.594Z,70.95
2023-04-07T06:04:33.218Z,58.88
2023-04-07T06:07:00.344Z,68.47
2023-04-07T06:09:27.456Z,70.35
2023-04-07T06:11:54.438Z,64.07
2023-04-07T06:14:21.598Z,62.13
2023-04-07T06:16:50.045Z,60.38
2023-04-07T06:19:16.999Z,64.45
2023-04-07T06:21:44.074Z,59.63
2023-04-07T06:24:11.051Z,70.35
2023-04-07T06:26:41.599Z,67.30
2023-04-07T06:29:08.767Z,68.10
2023-04-07T06:31:35.932Z,67.68
2023-04-07T06:34:03.212Z,72.65
2023-04-07T06:36:30.195Z,73.38
2023-04-07T06:38:58.258Z,80.35
2023-04-07T06:41:25.604Z,60.95
2023-04-07T06:43:52.788Z,61.28
2023-04-07T06:46:20.200Z,63.33
2023-04-07T06:48:48.055Z,73.13
2023-04-07T06:51:15.009Z,63.50
2023-04-07T06:53:42.511Z,64.32
2023-04-07T06:56:11.680Z,69.43
2023-04-07T06:58:39.015Z,68.70
2023-04-07T07:01:06.877Z,67.40
2023-04-07T07:03:34.945Z,64.22
2023-04-07T07:06:02.495Z,74.45
2023-04-07T07:08:31.774Z,54.25
2023-04-07T07:10:58.764Z,52.17
2023-04-07T07:13:27.292Z,60.53
2023-04-07T07:15:54.566Z,53.33
2023-04-07T07:18:21.850Z,43.40
2023-04-07T07:20:51.297Z,36.92
2023-04-07T07:23:18.265Z,28.75
2023-04-07T07:25:45.475Z,34.80
2023-04-07T07:28:12.399Z,31.35
2023-04-07T07:30:41.520Z,29.58
2023-04-07T07:33:08.607Z,26.60
2023-04-07T07:35:37.621Z,31.10
2023-04-07T07:38:05.999Z,49.13
2023-04-07T07:40:33.397Z,38.95
2023-04-07T07:43:02.021Z,42.90
2023-04-07T07:45:29.138Z,37.95
2023-04-07T07:47:56.329Z,30.25
2023-04-07T07:50:23.686Z,39.35
2023-04-07T07:52:50.742Z,39.72
2023-04-07T07:55:17.780Z,28.30
2023-04-07T07:57:44.672Z,30.17
2023-04-07T08:00:12.275Z,29.08
2023-04-07T08:02:40.140Z,31.83
2023-04-07T08:05:07.566Z,24.98
2023-04-07T08:07:38.046Z,32.10
2023-04-07T08:10:05.230Z,30.10
2023-04-07T08:12:32.375Z,23.45
2023-04-07T08:14:59.341Z,28.38
2023-04-07T08:17:26.333Z,39.83
2023-04-07T08:19:53.170Z,56.38
2023-04-07T08:22:21.374Z,47.20
2023-04-07T08:24:48.381Z,59.17
2023-04-07T08:27:15.296Z,38.90
2023-04-07T08:29:43.753Z,28.42
2023-04-07T08:32:10.997Z,25.58
2023-04-07T08:34:37.903Z,41.67
2023-04-07T08:37:04.878Z,36.05
2023-04-07T08:39:31.712Z,32.88
2023-04-07T08:41:58.823Z,38.22
2023-04-07T08:44:28.765Z,29.52
2023-04-07T08:46:59.711Z,26.85
2023-04-07T08:49:30.845Z,61.92
2023-04-07T08:52:00.437Z,39.17
2023-04-07T08:54:27.558Z,25.98
2023-04-07T08:56:55.460Z,29.25
2023-04-07T08:59:27.007Z,57.45
2023-04-07T09:01:55.125Z,84.60
2023-04-07T09:04:27.702Z,38.25
2023-04-07T09:06:54.757Z,27.90
2023-04-07T09:09:41.361Z,34.70
2023-04-07T09:12:08.272Z,30.98
2023-04-07T09:14:36.444Z,29.33
2023-04-07T09:17:03.436Z,24.02
2023-04-07T09:19:31.126Z,40.28
2023-04-07T09:21:58.093Z,25.42
2023-04-07T09:24:29.797Z,23.60
2023-04-07T09:27:20.379Z,27.42
2023-04-07T09:29:48.198Z,34.22
2023-04-07T09:32:37.674Z,28.00
2023-04-07T09:35:04.713Z,22.40
2023-04-07T09:37:31.905Z,31.67
2023-04-07T09:39:59.458Z,25.73
2023-04-07T09:42:27.181Z,25.95
2023-04-07T09:44:54.515Z,26.20
2023-04-07T09:47:29.300Z,46.70
2023-04-07T09:49:57.277Z,28.63
2023-04-07T09:52:46.773Z,36.10
2023-04-07T09:55:14.967Z,30.95
2023-04-07T09:57:42.573Z,30.95
2023-04-07T10:00:11.086Z,27.27
2023-04-07T10:02:38.534Z,28.20
2023-04-07T10:05:06.394Z,26.45
2023-04-07T10:07:33.536Z,29.67
2023-04-07T10:10:01.719Z,29.27
2023-04-07T10:12:31.324Z,25.20
2023-04-07T10:15:01.270Z,23.27
2023-04-07T10:17:29.247Z,23.45
2023-04-07T10:19:59.365Z,23.95
2023-04-07T10:22:28.727Z,25.20
2023-04-07T10:25:04.927Z,23.08
2023-04-07T10:27:35.694Z,26.27
2023-04-07T10:30:05.543Z,31.80
2023-04-07T10:32:32.551Z,27.23
2023-04-07T10:35:01.275Z,30.55
2023-04-07T10:37:28.474Z,25.02
2023-04-07T10:40:21.951Z,32.15
2023-04-07T10:42:48.882Z,25.70
2023-04-07T10:45:15.972Z,24.23
2023-04-07T10:48:01.849Z,27.05
2023-04-07T10:50:29.604Z,28.33
2023-04-07T10:53:14.155Z,33.35
2023-04-07T10:55:45.669Z,31.83
2023-04-07T10:58:37.569Z,29.10
2023-04-07T11:01:05.854Z,24.52
2023-04-07T11:03:38.491Z,30.27
2023-04-07T11:06:10.089Z,32.75
2023-04-07T11:08:43.330Z,30.48
2023-04-07T11:11:12.644Z,38.55
2023-04-07T11:13:43.532Z,42.55
2023-04-07T11:16:10.806Z,40.75
2023-04-07T11:18:39.422Z,36.03
2023-04-07T11:21:07.183Z,38.25
2023-04-07T11:23:46.077Z,35.97
2023-04-07T11:26:15.245Z,38.63
2023-04-07T11:28:53.668Z,38.53
2023-04-07T11:31:28.810Z,34.30
2023-04-07T11:33:57.769Z,37.42
2023-04-07T11:36:41.308Z,33.03
2023-04-07T11:39:21.890Z,36.78
2023-04-07T11:41:50.269Z,41.40
2023-04-07T11:44:17.435Z,43.45
2023-04-07T11:46:55.390Z,39.80
2023-04-07T11:49:41.271Z,50.42
2023-04-07T11:52:08.153Z,44.78
2023-04-07T11:54:47.309Z,44.90
2023-04-07T11:57:15.040Z,40.17
2023-04-07T11:59:42.388Z,38.00
2023-04-07T12:02:10.024Z,43.72
2023-04-07T12:04:41.373Z,44.55
2023-04-07T12:07:10.507Z,38.63
2023-04-07T12:09:38.458Z,40.58
2023-04-07T12:12:08.185Z,31.63
2023-04-07T12:14:36.320Z,41.42
2023-04-07T12:17:04.008Z,49.20
2023-04-07T12:19:36.426Z,43.25
2023-04-07T12:22:04.060Z,34.85
2023-04-07T12:24:32.655Z,39.63
2023-04-07T12:27:00.162Z,48.47
2023-04-07T12:29:27.249Z,52.45
2023-04-07T12:31:54.132Z,46.25
2023-04-07T12:34:21.038Z,45.90
2023-04-07T12:36:48.625Z,52.75
2023-04-07T12:39:16.200Z,32.70
2023-04-07T12:41:45.079Z,39.83
2023-04-07T12:44:12.290Z,43.55
2023-04-07T12:46:39.313Z,43.53
2023-04-07T12:49:06.328Z,42.08
2023-04-07T12:51:36.307Z,38.65
2023-04-07T12:54:04.586Z,35.45
2023-04-07T12:56:31.783Z,34.45
2023-04-07T12:58:58.710Z,48.28
2023-04-07T13:01:26.178Z,48.75
2023-04-07T13:03:53.915Z,43.95
2023-04-07T13:06:21.132Z,43.60
2023-04-07T13:08:48.043Z,42.58
2023-04-07T13:11:14.977Z,44.83
2023-04-07T13:13:41.940Z,35.40
2023-04-07T13:16:08.888Z,36.55
2023-04-07T13:18:36.883Z,34.90
2023-04-07T13:23:42.726Z,36.78
2023-04-07T13:26:10.657Z,34.92
2023-04-07T13:28:38.169Z,39.08
2023-04-07T13:31:05.149Z,37.35
2023-04-07T13:33:32.078Z,32.60
2023-04-07T13:36:00.102Z,36.92
2023-04-07T13:38:27.026Z,38.10
2023-04-07T13:41:12.787Z,35.85
2023-04-07T13:43:39.706Z,43.63
2023-04-07T13:46:17.200Z,34.90
2023-04-07T13:48:52.096Z,35.90
2023-04-07T13:51:21.248Z,44.05
2023-04-07T13:53:48.511Z,39.83
2023-04-07T13:56:15.747Z,39.08
2023-04-07T13:58:42.682Z,35.17
2023-04-07T14:01:09.558Z,43.55
2023-04-07T14:03:39.174Z,43.53
2023-04-07T14:06:06.201Z,47.63
2023-04-07T14:08:33.090Z,52.85
2023-04-07T14:11:00.070Z,40.00
2023-04-07T14:13:27.524Z,42.45
2023-04-07T14:15:56.174Z,46.20
2023-04-07T14:18:23.856Z,46.55
2023-04-07T14:20:51.159Z,36.50
2023-04-07T14:23:33.942Z,47.75
2023-04-07T14:26:06.317Z,39.47
2023-04-07T14:28:33.864Z,68.25
2023-04-07T14:31:00.868Z,49.55
2023-04-07T14:33:29.006Z,35.17
2023-04-07T14:36:00.959Z,34.15
2023-04-07T14:38:27.879Z,39.38
2023-04-07T14:40:54.986Z,46.00
2023-04-07T14:43:21.861Z,47.55
2023-04-07T14:45:49.793Z,43.33
2023-04-07T14:48:17.441Z,44.10
2023-04-07T14:50:44.350Z,37.05
2023-04-07T14:53:11.303Z,48.35
2023-04-07T14:55:38.243Z,55.53
2023-04-07T14:58:05.098Z,53.38
2023-04-07T15:00:31.919Z,55.35
2023-04-07T15:02:59.111Z,45.88
2023-04-07T15:05:28.869Z,57.80
2023-04-07T15:07:56.110Z,57.42
2023-04-07T15:10:23.015Z,57.35
2023-04-07T15:12:50.513Z,43.40
2023-04-07T15:15:17.894Z,41.72
2023-04-07T15:17:45.741Z,45.45
2023-04-07T15:20:13.412Z,48.28
2023-04-07T15:22:40.645Z,44.03
2023-04-07T15:25:08.128Z,46.75
2023-04-07T15:27:35.443Z,44.30
2023-04-07T15:30:02.388Z,47.40
2023-04-07T15:32:32.072Z,56.92
2023-04-07T15:34:59.021Z,48.25
2023-04-07T15:37:26.567Z,41.70
2023-04-07T15:39:53.676Z,41.92
2023-04-07T15:42:20.564Z,40.42
2023-04-07T15:44:47.968Z,41.30
2023-04-07T15:47:14.994Z,36.72
2023-04-07T15:49:42.516Z,40.03
2023-04-07T15:52:12.166Z,37.92
2023-04-07T15:54:39.137Z,38.53
2023-04-07T15:57:06.144Z,41.22
2023-04-07T15:59:33.183Z,36.38
2023-04-07T16:02:00.440Z,35.42
2023-04-07T16:04:27.525Z,38.35
2023-04-07T16:06:54.393Z,49.03
2023-04-07T16:09:21.386Z,52.10
2023-04-07T16:11:48.206Z,39.05
2023-04-07T16:14:15.120Z,31.45
2023-04-07T16:16:44.777Z,39.05
2023-04-07T16:19:12.054Z,38.03
2023-04-07T16:21:39.663Z,37.17
2023-04-07T16:24:06.663Z,34.05
2023-04-07T16:26:34.748Z,46.80
2023-04-07T16:29:05.916Z,37.70
2023-04-07T16:31:32.822Z,33.47
2023-04-07T16:33:59.698Z,40.00
2023-04-07T16:36:26.779Z,26.90
2023-04-07T16:38:54.168Z,26.67
2023-04-07T16:41:22.344Z,31.85
2023-04-07T16:43:49.331Z,37.65
2023-04-07T16:46:16.669Z,31.58
2023-04-07T16:48:43.549Z,34.92
2023-04-07T16:51:10.635Z,30.83
2023-04-07T16:53:37.573Z,38.25
2023-04-07T16:56:04.553Z,43.13
2023-04-07T16:58:31.461Z,38.50
2023-04-07T17:00:58.374Z,37.30
2023-04-07T17:03:26.563Z,39.20
2023-04-07T17:05:53.531Z,32.28
2023-04-07T17:08:20.579Z,34.28
2023-04-07T17:10:47.516Z,33.20
2023-04-07T17:13:14.941Z,37.45
2023-04-07T17:15:41.854Z,38.00
2023-04-07T17:18:27.512Z,38.50
2023-04-07T17:20:54.365Z,35.35
2023-04-07T17:23:21.216Z,35.05
2023-04-07T17:25:51.894Z,45.53
2023-04-07T17:28:18.794Z,50.17
2023-04-07T17:30:45.641Z,51.38
2023-04-07T17:33:12.552Z,67.20
2023-04-07T17:35:40.114Z,76.70
2023-04-07T17:38:09.729Z,82.47
2023-04-07T17:40:36.545Z,73.53
2023-04-07T17:43:03.812Z,72.80
2023-04-07T17:45:31.076Z,64.30
2023-04-07T17:47:58.073Z,58.97
2023-04-07T17:50:25.053Z,60.70
2023-04-07T17:53:10.503Z,58.35
2023-04-07T17:55:37.451Z,60.38
2023-04-07T17:58:05.211Z,80.00
2023-04-07T18:00:32.274Z,81.97
2023-04-07T18:03:00.625Z,80.13
2023-04-07T18:05:31.008Z,77.28
2023-04-07T18:07:57.912Z,58.17
2023-04-07T18:10:25.068Z,56.85
2023-04-07T18:12:52.165Z,71.50
2023-04-07T18:15:19.169Z,69.88
2023-04-07T18:17:49.224Z,61.67
2023-04-07T18:20:16.448Z,60.63
2023-04-07T18:22:44.266Z,56.65
2023-04-07T18:25:11.551Z,63.80
2023-04-07T18:27:39.385Z,67.70
2023-04-07T18:30:07.169Z,64.30
2023-04-07T18:32:34.541Z,74.55
2023-04-07T18:35:01.410Z,76.22
2023-04-07T18:37:29.747Z,71.20
2023-04-07T18:39:56.687Z,76.05
2023-04-07T18:42:23.605Z,78.80
2023-04-07T18:44:50.415Z,81.07
2023-04-07T18:47:18.560Z,85.43
2023-04-07T18:49:45.383Z,79.22
2023-04-07T18:52:12.308Z,69.13
2023-04-07T18:54:39.520Z,77.22
2023-04-07T18:57:07.142Z,62.70
2023-04-07T18:59:33.959Z,61.55
2023-04-07T19:02:01.292Z,62.13
2023-04-07T19:04:28.557Z,68.30
2023-04-07T19:06:57.618Z,66.47
2023-04-07T19:09:24.615Z,70.78
2023-04-07T19:11:52.516Z,76.32
2023-04-07T19:14:20.156Z,74.40
2023-04-07T19:16:47.520Z,67.85
2023-04-07T19:19:14.630Z,67.97
2023-04-07T19:21:44.787Z,62.90
2023-04-07T19:24:14.626Z,62.15
2023-04-07T19:26:42.484Z,62.85
2023-04-07T19:29:12.281Z,55.70
2023-04-07T19:31:39.651Z,55.10
2023-04-07T19:34:06.886Z,64.15
2023-04-07T19:36:34.273Z,60.15
2023-04-07T19:39:01.285Z,66.70
2023-04-07T19:41:29.522Z,65.25
2023-04-07T19:43:56.561Z,75.50
2023-04-07T19:46:23.430Z,76.40
2023-04-07T19:48:50.729Z,90.05
2023-04-07T19:51:17.706Z,80.45
2023-04-07T19:53:44.920Z,76.07
2023-04-07T19:56:12.775Z,82.38
2023-04-07T19:58:39.814Z,80.53
2023-04-07T20:01:06.905Z,83.22
2023-04-07T20:03:34.064Z,79.43
2023-04-07T20:06:01.340Z,83.53
2023-04-07T20:08:28.236Z,77.82
2023-04-07T20:10:55.185Z,73.43
2023-04-07T20:13:23.610Z,74.28
2023-04-07T20:15:50.688Z,76.30
2023-04-07T20:18:18.721Z,87.68
2023-04-07T20:20:46.893Z,77.03
2023-04-07T20:23:16.150Z,78.65
2023-04-07T20:25:43.071Z,80.90
2023-04-07T20:28:10.029Z,72.63
2023-04-07T20:30:37.009Z,80.22
2023-04-07T20:33:04.206Z,76.88
2023-04-07T20:35:31.198Z,79.78
2023-04-07T20:37:58.456Z,73.75
2023-04-07T20:40:26.616Z,76.25
2023-04-07T20:42:53.602Z,70.68
2023-04-07T20:45:22.010Z,73.13
2023-04-07T20:47:48.915Z,69.53
2023-04-07T20:50:16.103Z,68.13
2023-04-07T20:52:44.950Z,65.55
2023-04-07T20:55:11.917Z,71.47
2023-04-07T20:57:41.853Z,69.13
2023-04-07T21:00:10.606Z,67.80
2023-04-07T21:02:38.284Z,68.07
2023-04-07T21:05:05.662Z,65.38
2023-04-07T21:07:33.928Z,74.75
2023-04-07T21:10:01.509Z,76.30
2023-04-07T21:12:29.002Z,78.57
2023-04-07T21:14:56.101Z,79.63
2023-04-07T21:17:23.236Z,69.80
2023-04-07T21:19:50.577Z,64.82
2023-04-07T21:22:17.520Z,85.30
2023-04-07T21:24:44.561Z,75.57
2023-04-07T21:27:12.418Z,87.75
2023-04-07T21:29:42.576Z,81.65
2023-04-07T21:32:10.561Z,75.47
2023-04-07T21:34:37.508Z,82.43
2023-04-07T21:37:04.430Z,84.28
2023-04-07T21:39:33.323Z,83.22
2023-04-07T21:42:00.378Z,90.13
2023-04-07T21:44:27.419Z,91.95
2023-04-07T21:46:54.432Z,88.45
2023-04-07T21:49:22.840Z,88.40
2023-04-07T21:51:49.808Z,100.75
2023-04-07T21:54:17.487Z,106.38
2023-04-07T21:56:49.278Z,94.80
2023-04-07T21:59:17.557Z,105.15
2023-04-07T22:01:47.328Z,98.47
2023-04-07T22:04:14.623Z,96.97
2023-04-07T22:06:41.826Z,77.90
2023-04-07T22:09:10.585Z,79.15
2023-04-07T22:11:37.648Z,78.57
2023-04-07T22:14:04.599Z,78.93
2023-04-07T22:16:31.826Z,81.57
2023-04-07T22:18:59.010Z,75.30
2023-04-07T22:21:27.553Z,79.00
2023-04-07T22:23:54.600Z,74.72
2023-04-07T22:26:21.936Z,66.95
2023-04-07T22:28:49.099Z,69.75
2023-04-07T22:31:16.431Z,70.05
2023-04-07T22:33:43.287Z,72.90
2023-04-07T22:36:10.330Z,74.82
2023-04-07T22:38:37.195Z,75.18
2023-04-07T22:41:04.077Z,67.22
2023-04-07T22:43:31.164Z,72.10
2023-04-07T22:45:58.080Z,67.63
2023-04-07T22:48:25.082Z,66.90
2023-04-07T22:50:52.241Z,67.72
2023-04-07T22:53:19.057Z,65.60
2023-04-07T22:55:46.326Z,70.10
2023-04-07T22:58:13.578Z,68.38
2023-04-07T23:00:40.920Z,59.20
2023-04-07T23:03:08.366Z,60.47
2023-04-07T23:05:35.580Z,62.85
2023-04-07T23:08:02.625Z,62.58
2023-04-07T23:10:32.027Z,62.38
2023-04-07T23:12:59.157Z,55.67
2023-04-07T23:15:28.486Z,54.22
2023-04-07T23:17:55.769Z,52.78
2023-04-07T23:20:41.391Z,55.25
2023-04-07T23:23:08.499Z,58.17
2023-04-07T23:25:35.472Z,58.45
2023-04-07T23:28:05.316Z,63.30
2023-04-07T23:30:32.296Z,66.10
2023-04-07T23:32:59.426Z,67.78
2023-04-07T23:35:26.808Z,67.45
2023-04-07T23:37:53.994Z,65.45
2023-04-07T23:40:20.909Z,76.13
2023-04-07T23:43:07.058Z,89.53
2023-04-07T23:45:35.194Z,89.17
2023-04-07T23:48:02.083Z,87.93
2023-04-07T23:50:29.441Z,87.95
2023-04-07T23:52:56.454Z,88.90
2023-04-07T23:55:24.145Z,91.20
2023-04-07T23:57:52.202Z,97.95
